createdAt,value
2024-02-19T00:00:14.813Z,49.61
2024-02-19T00:03:01.068Z,49.58
2024-02-19T00:05:45.903Z,49.59
2024-02-19T00:08:30.700Z,49.00
2024-02-19T00:11:15.479Z,48.99
2024-02-19T00:14:00.436Z,48.85
2024-02-19T00:16:45.188Z,49.15
2024-02-19T00:19:30.192Z,49.56
2024-02-19T00:22:15.612Z,49.97
2024-02-19T00:25:00.551Z,49.74
2024-02-19T00:27:45.585Z,49.63
2024-02-19T00:30:30.610Z,50.31
2024-02-19T00:33:15.331Z,49.91
2024-02-19T00:36:00.389Z,50.21
2024-02-19T00:38:45.396Z,50.45
2024-02-19T00:41:30.172Z,50.77
2024-02-19T00:44:14.942Z,50.91
2024-02-19T00:47:00.039Z,51.32
2024-02-19T00:49:45.115Z,51.48
2024-02-19T00:52:29.965Z,51.21
2024-02-19T00:55:15.118Z,51.76
2024-02-19T00:57:59.875Z,52.57
2024-02-19T01:00:44.760Z,52.47
2024-02-19T01:03:29.517Z,52.29
2024-02-19T01:06:14.511Z,52.73
2024-02-19T01:08:59.192Z,52.75
2024-02-19T01:11:44.052Z,53.14
2024-02-19T01:14:28.799Z,54.91
2024-02-19T01:17:13.765Z,56.03
2024-02-19T01:19:58.888Z,56.14
2024-02-19T01:22:43.706Z,56.38
2024-02-19T01:25:28.750Z,56.65
2024-02-19T01:28:13.765Z,56.69
2024-02-19T01:30:58.799Z,57.36
2024-02-19T01:33:43.834Z,56.98
2024-02-19T01:36:28.579Z,57.32
2024-02-19T01:39:13.676Z,56.54
2024-02-19T01:44:44.080Z,56.35
2024-02-19T01:47:29.005Z,56.02
2024-02-19T01:50:14.089Z,56.13
2024-02-19T01:52:59.039Z,57.00
2024-02-19T01:55:43.752Z,57.13
2024-02-19T01:58:28.698Z,57.84
2024-02-19T02:01:13.692Z,58.11
2024-02-19T02:03:58.674Z,58.83
2024-02-19T02:06:43.668Z,58.95
2024-02-19T02:09:28.606Z,59.30
2024-02-19T02:12:13.581Z,59.14
2024-02-19T02:14:58.417Z,58.48
2024-02-19T02:17:43.483Z,58.25
2024-02-19T02:20:28.308Z,58.00
2024-02-19T02:23:13.260Z,58.67
2024-02-19T02:25:58.004Z,58.35
2024-02-19T02:28:42.934Z,58.03
2024-02-19T02:31:27.829Z,58.40
2024-02-19T02:34:12.863Z,58.04
2024-02-19T02:36:57.764Z,58.26
2024-02-19T02:39:42.521Z,57.89
2024-02-19T02:42:27.379Z,58.24
2024-02-19T02:45:12.346Z,58.21
2024-02-19T02:47:57.422Z,58.38
2024-02-19T02:50:42.520Z,60.10
2024-02-19T02:53:27.421Z,59.98
2024-02-19T02:56:12.385Z,59.86
2024-02-19T02:58:57.122Z,59.17
2024-02-19T03:01:42.230Z,60.02
2024-02-19T03:04:27.356Z,60.04
2024-02-19T03:07:12.192Z,59.52
2024-02-19T03:09:57.029Z,59.00
2024-02-19T03:12:42.139Z,59.92
2024-02-19T03:15:26.946Z,58.93
2024-02-19T03:18:12.001Z,58.64
2024-02-19T03:20:56.927Z,58.32
2024-02-19T03:23:41.583Z,58.74
2024-02-19T03:26:37.141Z,59.23
2024-02-19T03:29:26.021Z,59.44
2024-02-19T03:32:10.895Z,59.10
2024-02-19T03:34:56.029Z,59.03
2024-02-19T03:37:40.691Z,58.40
2024-02-19T03:40:25.886Z,58.96
2024-02-19T03:43:10.664Z,58.70
2024-02-19T03:45:55.542Z,59.43
2024-02-19T03:48:40.613Z,59.96
2024-02-19T03:51:25.354Z,60.55
2024-02-19T03:54:11.731Z,59.91
2024-02-19T03:56:57.814Z,59.80
2024-02-19T03:59:42.763Z,59.63
2024-02-19T04:02:27.702Z,59.84
2024-02-19T04:05:12.692Z,59.74
2024-02-19T04:07:57.641Z,59.74
2024-02-19T04:10:42.508Z,59.40
2024-02-19T04:13:27.580Z,59.82
2024-02-19T04:16:12.493Z,59.64
2024-02-19T04:18:57.594Z,59.02
2024-02-19T04:21:42.393Z,59.64
2024-02-19T04:24:27.117Z,59.30
2024-02-19T04:27:12.205Z,58.67
2024-02-19T04:29:56.884Z,58.71
2024-02-19T04:32:41.943Z,58.49
2024-02-19T04:35:26.828Z,57.83
2024-02-19T04:38:11.868Z,57.83
2024-02-19T04:40:56.595Z,58.31
2024-02-19T04:43:41.523Z,58.05
2024-02-19T04:46:26.671Z,59.14
2024-02-19T04:49:11.770Z,59.70
2024-02-19T04:51:56.827Z,60.96
2024-02-19T04:54:41.662Z,61.06
2024-02-19T04:57:26.531Z,60.84
2024-02-19T05:00:11.472Z,60.92
2024-02-19T05:02:56.400Z,60.03
2024-02-19T05:05:41.313Z,59.52
2024-02-19T05:08:26.307Z,59.65
2024-02-19T05:11:11.442Z,59.60
2024-02-19T05:13:56.365Z,59.67
2024-02-19T05:16:41.419Z,59.82
2024-02-19T05:19:26.442Z,59.38
2024-02-19T05:22:11.514Z,59.46
2024-02-19T05:24:56.297Z,59.18
2024-02-19T05:27:41.289Z,59.56
2024-02-19T05:30:26.281Z,59.82
2024-02-19T05:33:11.277Z,60.42
2024-02-19T05:35:56.155Z,60.25
2024-02-19T05:38:41.127Z,60.30
2024-02-19T05:41:26.179Z,60.02
2024-02-19T05:44:11.236Z,59.93
2024-02-19T05:46:56.181Z,61.36
2024-02-19T05:49:45.597Z,61.15
2024-02-19T05:52:31.168Z,61.41
2024-02-19T05:55:16.234Z,61.35
2024-02-19T05:58:01.125Z,61.34
2024-02-19T06:00:46.385Z,61.64
2024-02-19T06:03:31.189Z,61.00
2024-02-19T06:06:16.130Z,60.73
2024-02-19T06:09:01.086Z,60.29
2024-02-19T06:11:46.001Z,59.79
2024-02-19T06:14:30.934Z,60.25
2024-02-19T06:17:15.869Z,60.41
2024-02-19T06:20:03.974Z,60.46
2024-02-19T06:22:48.891Z,60.33
2024-02-19T06:25:33.843Z,60.99
2024-02-19T06:28:18.900Z,60.99
2024-02-19T06:31:03.868Z,61.23
2024-02-19T06:33:49.019Z,60.77
2024-02-19T06:36:34.814Z,60.74
2024-02-19T06:39:22.176Z,61.15
2024-02-19T06:42:07.071Z,61.80
2024-02-19T06:44:53.448Z,61.17
2024-02-19T06:47:39.405Z,61.01
2024-02-19T06:50:24.526Z,61.85
2024-02-19T06:53:09.596Z,63.20
2024-02-19T06:55:54.337Z,64.01
2024-02-19T06:58:39.396Z,63.13
2024-02-19T07:01:24.308Z,62.70
2024-02-19T07:04:09.494Z,61.69
2024-02-19T07:06:59.636Z,61.63
2024-02-19T07:09:48.076Z,61.22
2024-02-19T07:12:38.975Z,61.25
2024-02-19T07:15:29.204Z,61.10
2024-02-19T07:18:18.133Z,60.81
2024-02-19T07:21:06.229Z,60.50
2024-02-19T07:23:51.518Z,60.91
2024-02-19T07:26:39.123Z,60.55
2024-02-19T07:29:28.855Z,60.98
2024-02-19T07:32:17.630Z,60.41
2024-02-19T07:35:05.216Z,60.91
2024-02-19T07:37:51.269Z,60.55
2024-02-19T07:40:37.811Z,59.98
2024-02-19T07:43:31.042Z,59.74
2024-02-19T07:46:17.962Z,59.72
2024-02-19T07:49:05.725Z,60.03
2024-02-19T07:51:52.051Z,60.10
2024-02-19T07:54:36.695Z,59.71
2024-02-19T07:57:21.543Z,59.90
2024-02-19T08:00:06.119Z,59.86
2024-02-19T08:02:50.891Z,59.62
2024-02-19T08:05:35.579Z,60.06
2024-02-19T08:08:20.508Z,59.64
2024-02-19T08:11:05.440Z,59.93
2024-02-19T08:13:50.590Z,60.12
2024-02-19T08:16:35.488Z,59.33
2024-02-19T08:19:20.560Z,59.29
2024-02-19T08:22:05.909Z,59.20
2024-02-19T08:24:51.080Z,59.14
2024-02-19T08:27:36.308Z,58.42
2024-02-19T08:30:21.830Z,57.76
2024-02-19T08:33:07.345Z,57.95
2024-02-19T08:35:52.600Z,58.31
2024-02-19T08:38:38.557Z,58.70
2024-02-19T08:41:23.954Z,60.39
2024-02-19T08:44:08.984Z,59.15
2024-02-19T08:47:05.072Z,59.23
2024-02-19T08:49:50.309Z,59.18
2024-02-19T08:52:35.750Z,59.24
2024-02-19T08:55:20.872Z,57.92
2024-02-19T08:58:05.904Z,58.66
2024-02-19T09:00:50.919Z,59.28
2024-02-19T09:03:35.817Z,60.16
2024-02-19T09:06:20.838Z,60.24
2024-02-19T09:09:05.815Z,61.00
2024-02-19T09:11:50.987Z,60.61
2024-02-19T09:14:36.079Z,60.98
2024-02-19T09:17:21.188Z,60.91
2024-02-19T09:20:05.910Z,61.25
2024-02-19T09:22:50.849Z,61.46
2024-02-19T09:25:35.644Z,61.84
2024-02-19T09:28:20.875Z,62.01
2024-02-19T09:31:10.111Z,61.98
2024-02-19T09:33:56.778Z,62.61
2024-02-19T09:36:44.852Z,61.75
2024-02-19T09:39:33.768Z,61.87
2024-02-19T09:42:19.648Z,61.34
2024-02-19T09:45:04.476Z,61.61
2024-02-19T09:47:49.608Z,60.99
2024-02-19T09:50:35.319Z,61.12
2024-02-19T09:53:20.675Z,59.94
2024-02-19T09:56:06.781Z,59.23
2024-02-19T09:58:52.688Z,59.49
2024-02-19T10:01:37.956Z,59.43
2024-02-19T10:04:23.058Z,60.74
2024-02-19T10:07:08.236Z,59.74
2024-02-19T10:09:54.263Z,59.62
2024-02-19T10:12:40.187Z,59.03
2024-02-19T10:15:25.399Z,58.88
2024-02-19T10:18:11.016Z,59.18
2024-02-19T10:20:59.477Z,58.07
2024-02-19T10:23:48.742Z,59.31
2024-02-19T10:26:34.458Z,59.90
2024-02-19T10:29:19.606Z,60.32
2024-02-19T10:32:04.490Z,59.59
2024-02-19T10:34:49.389Z,61.32
2024-02-19T10:37:34.433Z,60.67
2024-02-19T10:40:19.275Z,59.92
2024-02-19T10:43:07.269Z,59.42
2024-02-19T10:45:52.375Z,58.03
2024-02-19T10:48:37.346Z,57.62
2024-02-19T10:51:22.379Z,56.77
2024-02-19T10:54:07.418Z,55.86
2024-02-19T10:56:52.355Z,54.56
2024-02-19T10:59:37.413Z,55.62
2024-02-19T11:02:22.598Z,54.47
2024-02-19T11:05:07.419Z,54.63
2024-02-19T11:07:52.347Z,54.16
2024-02-19T11:10:37.443Z,54.23
2024-02-19T11:13:22.409Z,54.25
2024-02-19T11:16:07.232Z,51.71
2024-02-19T11:18:54.637Z,53.15
2024-02-19T11:21:39.953Z,51.57
2024-02-19T11:24:24.970Z,51.70
2024-02-19T11:27:09.925Z,52.55
2024-02-19T11:29:54.942Z,53.26
2024-02-19T11:32:39.961Z,52.31
2024-02-19T11:35:25.012Z,52.45
2024-02-19T11:38:10.139Z,51.06
2024-02-19T11:40:54.841Z,49.66
2024-02-19T11:43:41.094Z,47.72
2024-02-19T11:46:26.126Z,48.20
2024-02-19T11:49:11.190Z,45.80
2024-02-19T11:52:04.427Z,46.02
2024-02-19T11:54:53.161Z,46.67
2024-02-19T11:57:38.266Z,46.27
2024-02-19T12:00:23.342Z,47.33
2024-02-19T12:03:08.111Z,46.84
2024-02-19T12:05:53.120Z,46.36
2024-02-19T12:08:37.892Z,45.15
2024-02-19T12:11:22.642Z,45.38
2024-02-19T12:14:07.282Z,44.45
2024-02-19T12:16:52.276Z,43.45
2024-02-19T12:19:37.232Z,43.03
2024-02-19T12:22:21.954Z,43.38
2024-02-19T12:25:07.123Z,43.19
2024-02-19T12:27:52.337Z,43.28
2024-02-19T12:30:37.252Z,43.63
2024-02-19T12:33:22.129Z,43.88
2024-02-19T12:36:07.366Z,42.95
2024-02-19T12:38:54.203Z,42.76
2024-02-19T12:41:39.020Z,42.91
2024-02-19T12:44:23.826Z,42.28
2024-02-19T12:47:08.853Z,41.37
2024-02-19T12:49:53.935Z,40.88
2024-02-19T12:52:39.304Z,41.36
2024-02-19T12:55:24.429Z,40.87
2024-02-19T12:58:09.601Z,40.70
2024-02-19T13:00:54.400Z,40.83
2024-02-19T13:03:39.316Z,41.41
2024-02-19T13:06:24.156Z,40.58
2024-02-19T13:09:08.716Z,41.49
2024-02-19T13:11:53.693Z,41.60
2024-02-19T13:14:38.379Z,40.33
2024-02-19T13:17:28.789Z,40.65
2024-02-19T13:20:21.066Z,40.93
2024-02-19T13:23:06.320Z,39.74
2024-02-19T13:25:51.025Z,39.41
2024-02-19T13:28:35.871Z,39.91
2024-02-19T13:31:21.167Z,39.83
2024-02-19T13:34:06.645Z,39.44
2024-02-19T13:36:52.820Z,39.34
2024-02-19T13:39:38.672Z,39.50
2024-02-19T13:42:23.427Z,38.93
2024-02-19T13:45:08.475Z,38.74
2024-02-19T13:47:53.193Z,38.53
2024-02-19T13:50:37.916Z,38.40
2024-02-19T13:53:22.735Z,38.53
2024-02-19T13:56:07.795Z,39.12
2024-02-19T13:58:52.503Z,37.94
2024-02-19T14:01:40.464Z,38.36
2024-02-19T14:04:27.140Z,37.95
2024-02-19T14:07:12.176Z,37.98
2024-02-19T14:09:57.580Z,38.07
2024-02-19T14:12:42.285Z,37.48
2024-02-19T14:15:27.513Z,38.33
2024-02-19T14:18:12.271Z,38.91
2024-02-19T14:20:58.045Z,38.61
2024-02-19T14:23:43.030Z,39.57
2024-02-19T14:26:28.293Z,39.53
2024-02-19T14:29:13.192Z,39.49
2024-02-19T14:31:57.919Z,40.19
2024-02-19T14:34:42.894Z,40.10
2024-02-19T14:37:28.125Z,39.92
2024-02-19T14:40:13.168Z,39.72
2024-02-19T14:42:58.324Z,39.90
2024-02-19T14:45:43.646Z,40.12
2024-02-19T14:48:28.623Z,39.67
2024-02-19T14:51:16.966Z,39.89
2024-02-19T14:54:03.480Z,39.76
2024-02-19T14:56:48.368Z,40.19
2024-02-19T14:59:33.348Z,42.03
2024-02-19T15:02:19.063Z,42.18
2024-02-19T15:05:04.359Z,42.53
2024-02-19T15:07:49.955Z,42.70
2024-02-19T15:10:40.089Z,43.64
2024-02-19T15:13:25.502Z,43.46
2024-02-19T15:16:12.157Z,43.72
2024-02-19T15:19:00.677Z,43.79
2024-02-19T15:21:45.585Z,43.25
2024-02-19T15:24:30.579Z,42.72
2024-02-19T15:27:15.400Z,42.21
2024-02-19T15:30:00.632Z,41.43
2024-02-19T15:32:48.673Z,40.23
2024-02-19T15:35:33.949Z,41.13
2024-02-19T15:38:18.924Z,41.92
2024-02-19T15:41:04.030Z,42.57
2024-02-19T15:43:48.841Z,42.41
2024-02-19T15:46:34.939Z,42.84
2024-02-19T15:49:20.106Z,42.78
2024-02-19T15:52:05.342Z,42.33
2024-02-19T15:54:50.274Z,41.98
2024-02-19T15:57:35.329Z,41.17
2024-02-19T16:00:20.107Z,40.27
2024-02-19T16:03:05.372Z,39.75
2024-02-19T16:05:50.349Z,39.42
2024-02-19T16:08:35.554Z,40.32
2024-02-19T16:11:20.502Z,40.63
2024-02-19T16:14:05.527Z,40.50
2024-02-19T16:16:50.299Z,40.80
2024-02-19T16:19:35.350Z,41.03
2024-02-19T16:22:20.579Z,41.29
2024-02-19T16:25:05.837Z,41.32
2024-02-19T16:27:50.803Z,41.05
2024-02-19T16:30:36.072Z,41.72
2024-02-19T16:33:20.835Z,42.10
2024-02-19T16:36:07.437Z,42.36
2024-02-19T16:38:53.637Z,42.67
2024-02-19T16:41:38.794Z,43.19
2024-02-19T16:44:23.872Z,43.24
2024-02-19T16:47:08.478Z,42.99
2024-02-19T16:49:53.603Z,43.08
2024-02-19T16:52:38.331Z,42.83
2024-02-19T16:55:23.404Z,42.95
2024-02-19T16:58:08.445Z,42.56
2024-02-19T17:00:53.469Z,42.93
2024-02-19T17:03:38.480Z,43.62
2024-02-19T17:06:23.592Z,43.76
2024-02-19T17:09:08.485Z,44.03
2024-02-19T17:11:53.328Z,44.09
2024-02-19T17:14:40.643Z,44.26
2024-02-19T17:17:26.245Z,44.65
2024-02-19T17:20:11.288Z,44.32
2024-02-19T17:22:56.377Z,44.47
2024-02-19T17:25:41.249Z,44.55
2024-02-19T17:28:26.678Z,44.44
2024-02-19T17:31:11.834Z,44.80
2024-02-19T17:33:56.896Z,45.12
2024-02-19T17:36:41.777Z,44.80
2024-02-19T17:39:26.686Z,45.03
2024-02-19T17:42:11.797Z,45.04
2024-02-19T17:44:56.767Z,44.46
2024-02-19T17:47:41.788Z,44.72
2024-02-19T17:50:26.889Z,45.04
2024-02-19T17:53:11.753Z,44.78
2024-02-19T17:55:56.777Z,44.10
2024-02-19T17:58:41.761Z,44.07
2024-02-19T18:01:27.291Z,44.02
2024-02-19T18:04:12.467Z,44.67
2024-02-19T18:06:57.422Z,44.62
2024-02-19T18:09:42.267Z,44.60
2024-02-19T18:12:27.169Z,44.63
2024-02-19T18:15:12.055Z,44.95
2024-02-19T18:17:57.212Z,45.09
2024-02-19T18:20:42.173Z,45.22
2024-02-19T18:23:27.246Z,46.04
2024-02-19T18:26:12.420Z,45.76
2024-02-19T18:28:57.196Z,46.15
2024-02-19T18:31:42.320Z,46.37
2024-02-19T18:34:27.313Z,46.65
2024-02-19T18:37:12.444Z,46.87
2024-02-19T18:39:57.412Z,46.31
2024-02-19T18:42:42.404Z,45.89
2024-02-19T18:45:27.667Z,46.16
2024-02-19T18:48:13.006Z,45.88
2024-02-19T18:50:57.850Z,45.79
2024-02-19T18:53:42.525Z,45.89
2024-02-19T18:56:27.526Z,45.60
2024-02-19T18:59:12.248Z,45.79
2024-02-19T19:01:57.378Z,46.29
2024-02-19T19:04:42.496Z,46.49
2024-02-19T19:07:27.498Z,46.80
2024-02-19T19:10:12.495Z,46.16
2024-02-19T19:12:57.254Z,46.03
2024-02-19T19:15:42.152Z,46.21
2024-02-19T19:18:27.187Z,46.38
2024-02-19T19:21:12.205Z,46.39
2024-02-19T19:23:57.073Z,46.20
2024-02-19T19:26:42.215Z,46.51
2024-02-19T19:29:27.109Z,47.25
2024-02-19T19:32:12.085Z,47.10
2024-02-19T19:34:57.164Z,46.17
2024-02-19T19:37:42.036Z,47.47
2024-02-19T19:40:27.074Z,46.91
2024-02-19T19:43:12.090Z,46.52
2024-02-19T19:45:57.670Z,46.15
2024-02-19T19:48:42.916Z,46.30
2024-02-19T19:51:27.919Z,46.34
2024-02-19T19:54:12.682Z,46.49
2024-02-19T19:56:57.662Z,46.40
2024-02-19T19:59:42.711Z,47.13
2024-02-19T20:02:27.616Z,48.32
2024-02-19T20:05:12.613Z,49.30
2024-02-19T20:07:57.471Z,48.69
2024-02-19T20:10:42.552Z,48.83
2024-02-19T20:13:27.672Z,48.73
2024-02-19T20:16:12.799Z,48.03
2024-02-19T20:18:57.711Z,48.14
2024-02-19T20:21:42.512Z,47.58
2024-02-19T20:24:27.349Z,47.70
2024-02-19T20:27:12.027Z,47.59
2024-02-19T20:29:56.924Z,47.45
2024-02-19T20:32:41.931Z,47.81
2024-02-19T20:35:27.111Z,47.88
2024-02-19T20:38:12.376Z,48.27
2024-02-19T20:40:57.218Z,47.98
2024-02-19T20:43:42.338Z,48.33
2024-02-19T20:46:27.453Z,48.15
2024-02-19T20:49:12.292Z,48.50
2024-02-19T20:51:57.232Z,48.53
2024-02-19T20:54:42.282Z,48.45
2024-02-19T20:57:27.325Z,48.01
2024-02-19T21:00:12.321Z,48.16
2024-02-19T21:02:57.329Z,49.02
2024-02-19T21:05:42.382Z,48.72
2024-02-19T21:08:27.465Z,48.52
2024-02-19T21:11:12.164Z,47.35
2024-02-19T21:13:57.002Z,46.86
2024-02-19T21:16:42.178Z,46.24
2024-02-19T21:19:27.066Z,45.50
2024-02-19T21:22:12.204Z,45.79
2024-02-19T21:24:57.194Z,45.74
2024-02-19T21:27:42.287Z,48.82
2024-02-19T21:30:27.147Z,50.61
2024-02-19T21:33:12.298Z,49.31
2024-02-19T21:35:57.115Z,49.07
2024-02-19T21:38:41.809Z,49.08
2024-02-19T21:41:26.610Z,48.86
2024-02-19T21:44:11.868Z,48.58
2024-02-19T21:46:56.676Z,48.73
2024-02-19T21:49:41.543Z,48.93
2024-02-19T21:52:26.557Z,49.39
2024-02-19T21:55:11.580Z,49.11
2024-02-19T21:57:56.441Z,48.95
2024-02-19T22:00:41.489Z,48.32
2024-02-19T22:03:26.463Z,48.04
2024-02-19T22:06:11.419Z,48.16
2024-02-19T22:08:56.521Z,48.19
2024-02-19T22:11:41.565Z,48.26
2024-02-19T22:14:26.421Z,48.13
2024-02-19T22:17:11.590Z,48.48
2024-02-19T22:19:56.691Z,48.64
2024-02-19T22:22:41.712Z,48.94
2024-02-19T22:25:26.767Z,48.62
2024-02-19T22:28:11.483Z,48.33
2024-02-19T22:30:56.475Z,48.08
2024-02-19T22:33:41.173Z,48.32
2024-02-19T22:36:26.033Z,48.88
2024-02-19T22:39:11.107Z,48.79
2024-02-19T22:41:56.097Z,48.82
2024-02-19T22:44:41.089Z,48.95
2024-02-19T22:47:26.181Z,49.37
2024-02-19T22:50:11.204Z,51.09
2024-02-19T22:52:56.072Z,50.54
2024-02-19T22:55:41.097Z,50.81
2024-02-19T22:58:31.912Z,51.19
2024-02-19T23:01:19.818Z,52.21
2024-02-19T23:04:04.787Z,51.88
2024-02-19T23:06:49.855Z,52.84
2024-02-19T23:09:34.673Z,54.11
2024-02-19T23:12:19.761Z,54.35
2024-02-19T23:15:04.663Z,54.38
2024-02-19T23:17:49.706Z,54.99
2024-02-19T23:20:34.504Z,55.03
2024-02-19T23:23:19.586Z,55.13
2024-02-19T23:26:04.539Z,54.98
2024-02-19T23:28:49.576Z,55.93
2024-02-19T23:31:34.748Z,56.08
2024-02-19T23:34:19.717Z,55.55
2024-02-19T23:37:04.627Z,55.77
2024-02-19T23:39:49.500Z,56.04
2024-02-19T23:42:34.706Z,55.56
2024-02-19T23:45:19.254Z,55.83
2024-02-19T23:48:04.369Z,56.08
2024-02-19T23:50:49.201Z,56.36
2024-02-19T23:53:34.395Z,55.45
2024-02-19T23:56:19.449Z,56.54
2024-02-19T23:59:04.441Z,56.78
